sensor_id;sensor_type;location;lat;lon;timestamp;P1;durP1;ratioP1;P2;durP2;ratioP2
13032;SDS011;6583;42.632;23.298;2023-07-29T00:01:16;2.97;;;2.78;;
13032;SDS011;6583;42.632;23.298;2023-07-29T00:03:43;3.92;;;3.10;;
13032;SDS011;6583;42.632;23.298;2023-07-29T00:06:09;2.85;;;2.65;;
13032;SDS011;6583;42.632;23.298;2023-07-29T00:08:36;4.63;;;2.70;;
13032;SDS011;6583;42.632;23.298;2023-07-29T00:11:04;2.80;;;2.60;;
13032;SDS011;6583;42.632;23.298;2023-07-29T00:13:31;2.88;;;2.67;;
13032;SDS011;6583;42.632;23.298;2023-07-29T00:15:58;3.13;;;2.83;;
13032;SDS011;6583;42.632;23.298;2023-07-29T00:18:24;3.13;;;2.83;;
13032;SDS011;6583;42.632;23.298;2023-07-29T00:20:52;3.40;;;3.10;;
13032;SDS011;6583;42.632;23.298;2023-07-29T00:23:20;3.58;;;3.10;;
13032;SDS011;6583;42.632;23.298;2023-07-29T00:25:47;2.97;;;2.72;;
13032;SDS011;6583;42.632;23.298;2023-07-29T00:28:15;3.63;;;3.15;;
13032;SDS011;6583;42.632;23.298;2023-07-29T00:30:42;3.03;;;2.83;;
13032;SDS011;6583;42.632;23.298;2023-07-29T00:33:08;3.45;;;2.85;;
13032;SDS011;6583;42.632;23.298;2023-07-29T00:35:35;3.58;;;3.05;;
13032;SDS011;6583;42.632;23.298;2023-07-29T00:38:02;3.20;;;2.90;;
13032;SDS011;6583;42.632;23.298;2023-07-29T00:40:28;3.15;;;2.85;;
13032;SDS011;6583;42.632;23.298;2023-07-29T00:42:55;3.25;;;2.95;;
13032;SDS011;6583;42.632;23.298;2023-07-29T00:45:24;3.40;;;3.10;;
13032;SDS011;6583;42.632;23.298;2023-07-29T00:47:53;3.33;;;3.03;;
13032;SDS011;6583;42.632;23.298;2023-07-29T00:50:20;3.20;;;2.97;;
13032;SDS011;6583;42.632;23.298;2023-07-29T00:52:48;3.13;;;2.92;;
13032;SDS011;6583;42.632;23.298;2023-07-29T00:55:15;3.17;;;2.80;;
13032;SDS011;6583;42.632;23.298;2023-07-29T00:57:42;3.42;;;3.00;;
13032;SDS011;6583;42.632;23.298;2023-07-29T01:00:13;2.85;;;2.65;;
13032;SDS011;6583;42.632;23.298;2023-07-29T01:02:41;3.40;;;3.10;;
13032;SDS011;6583;42.632;23.298;2023-07-29T01:05:08;3.00;;;2.80;;
13032;SDS011;6583;42.632;23.298;2023-07-29T01:07:39;3.25;;;3.05;;
13032;SDS011;6583;42.632;23.298;2023-07-29T01:10:14;3.55;;;3.10;;
13032;SDS011;6583;42.632;23.298;2023-07-29T01:12:51;3.10;;;2.88;;
13032;SDS011;6583;42.632;23.298;2023-07-29T01:15:27;3.60;;;3.30;;
13032;SDS011;6583;42.632;23.298;2023-07-29T01:18:02;3.60;;;3.03;;
13032;SDS011;6583;42.632;23.298;2023-07-29T01:20:32;3.65;;;3.22;;
13032;SDS011;6583;42.632;23.298;2023-07-29T01:23:03;9.00;;;3.25;;
13032;SDS011;6583;42.632;23.298;2023-07-29T01:25:31;4.15;;;2.90;;
13032;SDS011;6583;42.632;23.298;2023-07-29T01:27:57;3.03;;;2.83;;
13032;SDS011;6583;42.632;23.298;2023-07-29T01:30:25;4.43;;;2.90;;
13032;SDS011;6583;42.632;23.298;2023-07-29T01:32:58;3.15;;;2.85;;
13032;SDS011;6583;42.632;23.298;2023-07-29T01:35:31;3.10;;;2.80;;
13032;SDS011;6583;42.632;23.298;2023-07-29T01:38:03;3.47;;;2.97;;
13032;SDS011;6583;42.632;23.298;2023-07-29T01:40:36;3.60;;;3.30;;
13032;SDS011;6583;42.632;23.298;2023-07-29T01:43:03;4.03;;;3.00;;
13032;SDS011;6583;42.632;23.298;2023-07-29T01:45:32;3.63;;;3.33;;
13032;SDS011;6583;42.632;23.298;2023-07-29T01:48:03;3.40;;;3.10;;
13032;SDS011;6583;42.632;23.298;2023-07-29T01:50:30;3.17;;;2.90;;
13032;SDS011;6583;42.632;23.298;2023-07-29T01:52:57;3.30;;;3.00;;
13032;SDS011;6583;42.632;23.298;2023-07-29T01:55:23;3.20;;;2.90;;
13032;SDS011;6583;42.632;23.298;2023-07-29T01:57:51;3.33;;;3.03;;
13032;SDS011;6583;42.632;23.298;2023-07-29T02:00:18;3.58;;;3.28;;
13032;SDS011;6583;42.632;23.298;2023-07-29T02:02:45;3.58;;;3.28;;
13032;SDS011;6583;42.632;23.298;2023-07-29T02:05:12;4.63;;;3.20;;
13032;SDS011;6583;42.632;23.298;2023-07-29T02:07:39;3.47;;;3.17;;
13032;SDS011;6583;42.632;23.298;2023-07-29T02:10:06;4.03;;;3.60;;
13032;SDS011;6583;42.632;23.298;2023-07-29T02:12:33;3.55;;;3.25;;
13032;SDS011;6583;42.632;23.298;2023-07-29T02:15:01;3.13;;;2.92;;
13032;SDS011;6583;42.632;23.298;2023-07-29T02:17:28;3.72;;;3.42;;
13032;SDS011;6583;42.632;23.298;2023-07-29T02:19:55;3.50;;;3.17;;
13032;SDS011;6583;42.632;23.298;2023-07-29T02:22:22;3.67;;;3.38;;
13032;SDS011;6583;42.632;23.298;2023-07-29T02:24:48;3.28;;;2.97;;
13032;SDS011;6583;42.632;23.298;2023-07-29T02:27:15;4.47;;;2.95;;
13032;SDS011;6583;42.632;23.298;2023-07-29T02:29:42;3.20;;;2.90;;
13032;SDS011;6583;42.632;23.298;2023-07-29T02:32:10;3.45;;;3.15;;
13032;SDS011;6583;42.632;23.298;2023-07-29T02:34:36;3.40;;;3.10;;
13032;SDS011;6583;42.632;23.298;2023-07-29T02:37:03;4.07;;;3.60;;
13032;SDS011;6583;42.632;23.298;2023-07-29T02:39:30;3.42;;;3.20;;
13032;SDS011;6583;42.632;23.298;2023-07-29T02:41:57;3.53;;;3.22;;
13032;SDS011;6583;42.632;23.298;2023-07-29T02:44:23;3.60;;;3.15;;
13032;SDS011;6583;42.632;23.298;2023-07-29T02:46:51;3.40;;;3.08;;
13032;SDS011;6583;42.632;23.298;2023-07-29T02:49:21;3.58;;;3.28;;
13032;SDS011;6583;42.632;23.298;2023-07-29T02:51:48;3.58;;;3.22;;
13032;SDS011;6583;42.632;23.298;2023-07-29T02:54:14;3.58;;;3.08;;
13032;SDS011;6583;42.632;23.298;2023-07-29T02:56:41;4.65;;;3.40;;
13032;SDS011;6583;42.632;23.298;2023-07-29T02:59:08;3.40;;;3.10;;
13032;SDS011;6583;42.632;23.298;2023-07-29T03:01:34;3.90;;;3.42;;
13032;SDS011;6583;42.632;23.298;2023-07-29T03:04:01;3.65;;;3.35;;
13032;SDS011;6583;42.632;23.298;2023-07-29T03:06:29;4.30;;;3.42;;
13032;SDS011;6583;42.632;23.298;2023-07-29T03:08:55;3.50;;;3.20;;
13032;SDS011;6583;42.632;23.298;2023-07-29T03:11:22;3.60;;;3.30;;
13032;SDS011;6583;42.632;23.298;2023-07-29T03:13:49;3.47;;;3.15;;
13032;SDS011;6583;42.632;23.298;2023-07-29T03:16:16;8.07;;;3.60;;
13032;SDS011;6583;42.632;23.298;2023-07-29T03:18:44;5.97;;;3.30;;
13032;SDS011;6583;42.632;23.298;2023-07-29T03:21:11;3.53;;;3.13;;
13032;SDS011;6583;42.632;23.298;2023-07-29T03:23:39;3.80;;;3.50;;
13032;SDS011;6583;42.632;23.298;2023-07-29T03:26:05;3.75;;;3.42;;
13032;SDS011;6583;42.632;23.298;2023-07-29T03:28:36;3.70;;;3.40;;
13032;SDS011;6583;42.632;23.298;2023-07-29T03:31:04;3.97;;;3.33;;
13032;SDS011;6583;42.632;23.298;2023-07-29T03:33:31;4.32;;;3.33;;
13032;SDS011;6583;42.632;23.298;2023-07-29T03:35:57;4.10;;;3.50;;
13032;SDS011;6583;42.632;23.298;2023-07-29T03:38:24;4.97;;;3.30;;
13032;SDS011;6583;42.632;23.298;2023-07-29T03:40:52;3.25;;;2.95;;
13032;SDS011;6583;42.632;23.298;2023-07-29T03:43:19;3.33;;;3.03;;
13032;SDS011;6583;42.632;23.298;2023-07-29T03:45:46;3.53;;;3.22;;
13032;SDS011;6583;42.632;23.298;2023-07-29T03:48:13;3.67;;;3.30;;
13032;SDS011;6583;42.632;23.298;2023-07-29T03:50:39;3.72;;;3.42;;
13032;SDS011;6583;42.632;23.298;2023-07-29T03:53:06;3.50;;;3.20;;
13032;SDS011;6583;42.632;23.298;2023-07-29T03:55:35;3.65;;;3.00;;
13032;SDS011;6583;42.632;23.298;2023-07-29T03:58:03;3.30;;;3.10;;
13032;SDS011;6583;42.632;23.298;2023-07-29T04:00:30;3.47;;;3.17;;
13032;SDS011;6583;42.632;23.298;2023-07-29T04:02:56;6.32;;;3.30;;
13032;SDS011;6583;42.632;23.298;2023-07-29T04:05:23;4.30;;;3.45;;
13032;SDS011;6583;42.632;23.298;2023-07-29T04:07:50;5.63;;;3.42;;
13032;SDS011;6583;42.632;23.298;2023-07-29T04:10:18;4.93;;;3.13;;
13032;SDS011;6583;42.632;23.298;2023-07-29T04:12:45;5.28;;;3.75;;
13032;SDS011;6583;42.632;23.298;2023-07-29T04:15:13;4.47;;;4.07;;
13032;SDS011;6583;42.632;23.298;2023-07-29T04:17:39;4.28;;;3.88;;
13032;SDS011;6583;42.632;23.298;2023-07-29T04:20:06;3.90;;;3.58;;
13032;SDS011;6583;42.632;23.298;2023-07-29T04:22:34;6.70;;;4.20;;
13032;SDS011;6583;42.632;23.298;2023-07-29T04:25:00;5.05;;;4.45;;
13032;SDS011;6583;42.632;23.298;2023-07-29T04:27:27;4.78;;;4.38;;
13032;SDS011;6583;42.632;23.298;2023-07-29T04:29:53;5.03;;;4.63;;
13032;SDS011;6583;42.632;23.298;2023-07-29T04:32:21;4.85;;;4.30;;
13032;SDS011;6583;42.632;23.298;2023-07-29T04:34:48;5.25;;;4.68;;
13032;SDS011;6583;42.632;23.298;2023-07-29T04:37:15;7.18;;;4.43;;
13032;SDS011;6583;42.632;23.298;2023-07-29T04:39:41;5.43;;;4.93;;
13032;SDS011;6583;42.632;23.298;2023-07-29T04:42:08;5.25;;;4.47;;
13032;SDS011;6583;42.632;23.298;2023-07-29T04:44:35;6.18;;;5.53;;
13032;SDS011;6583;42.632;23.298;2023-07-29T04:47:02;7.28;;;5.35;;
13032;SDS011;6583;42.632;23.298;2023-07-29T04:49:30;5.82;;;5.22;;
13032;SDS011;6583;42.632;23.298;2023-07-29T04:51:56;6.05;;;5.45;;
13032;SDS011;6583;42.632;23.298;2023-07-29T04:54:23;7.28;;;5.93;;
13032;SDS011;6583;42.632;23.298;2023-07-29T04:56:49;6.70;;;5.65;;
13032;SDS011;6583;42.632;23.298;2023-07-29T04:59:16;5.90;;;5.28;;
13032;SDS011;6583;42.632;23.298;2023-07-29T05:01:43;5.90;;;5.10;;
13032;SDS011;6583;42.632;23.298;2023-07-29T05:04:09;5.93;;;4.90;;
13032;SDS011;6583;42.632;23.298;2023-07-29T05:06:38;6.65;;;4.72;;
13032;SDS011;6583;42.632;23.298;2023-07-29T05:09:14;5.90;;;4.82;;
13032;SDS011;6583;42.632;23.298;2023-07-29T05:11:40;6.18;;;4.85;;
13032;SDS011;6583;42.632;23.298;2023-07-29T05:14:08;6.15;;;5.05;;
13032;SDS011;6583;42.632;23.298;2023-07-29T05:16:35;6.47;;;5.30;;
13032;SDS011;6583;42.632;23.298;2023-07-29T05:19:02;5.28;;;4.78;;
13032;SDS011;6583;42.632;23.298;2023-07-29T05:21:29;5.53;;;4.57;;
13032;SDS011;6583;42.632;23.298;2023-07-29T05:23:57;5.70;;;4.95;;
13032;SDS011;6583;42.632;23.298;2023-07-29T05:26:23;6.50;;;4.70;;
13032;SDS011;6583;42.632;23.298;2023-07-29T05:28:50;6.18;;;5.32;;
13032;SDS011;6583;42.632;23.298;2023-07-29T05:31:17;6.03;;;5.22;;
13032;SDS011;6583;42.632;23.298;2023-07-29T05:33:44;5.68;;;5.07;;
13032;SDS011;6583;42.632;23.298;2023-07-29T05:36:11;5.32;;;4.93;;
13032;SDS011;6583;42.632;23.298;2023-07-29T05:38:37;5.75;;;4.95;;
13032;SDS011;6583;42.632;23.298;2023-07-29T05:41:05;5.43;;;4.30;;
13032;SDS011;6583;42.632;23.298;2023-07-29T05:43:32;5.55;;;5.05;;
13032;SDS011;6583;42.632;23.298;2023-07-29T05:45:58;7.05;;;5.07;;
13032;SDS011;6583;42.632;23.298;2023-07-29T05:48:25;5.60;;;5.13;;
13032;SDS011;6583;42.632;23.298;2023-07-29T05:50:52;6.80;;;5.47;;
13032;SDS011;6583;42.632;23.298;2023-07-29T05:53:18;8.18;;;5.53;;
13032;SDS011;6583;42.632;23.298;2023-07-29T05:55:45;5.80;;;5.30;;
13032;SDS011;6583;42.632;23.298;2023-07-29T05:58:13;6.90;;;5.70;;
13032;SDS011;6583;42.632;23.298;2023-07-29T06:00:40;7.18;;;5.35;;
13032;SDS011;6583;42.632;23.298;2023-07-29T06:03:07;5.75;;;5.22;;
13032;SDS011;6583;42.632;23.298;2023-07-29T06:05:33;6.20;;;5.60;;
13032;SDS011;6583;42.632;23.298;2023-07-29T06:08:00;5.72;;;5.03;;
13032;SDS011;6583;42.632;23.298;2023-07-29T06:10:27;6.25;;;5.47;;
13032;SDS011;6583;42.632;23.298;2023-07-29T06:12:54;7.25;;;5.65;;
13032;SDS011;6583;42.632;23.298;2023-07-29T06:15:22;6.75;;;5.40;;
13032;SDS011;6583;42.632;23.298;2023-07-29T06:17:48;6.55;;;5.13;;
13032;SDS011;6583;42.632;23.298;2023-07-29T06:20:15;5.88;;;4.97;;
13032;SDS011;6583;42.632;23.298;2023-07-29T06:22:42;5.63;;;5.03;;
13032;SDS011;6583;42.632;23.298;2023-07-29T06:25:09;7.55;;;5.03;;
13032;SDS011;6583;42.632;23.298;2023-07-29T06:27:35;5.75;;;5.13;;
13032;SDS011;6583;42.632;23.298;2023-07-29T06:30:02;6.18;;;4.93;;
13032;SDS011;6583;42.632;23.298;2023-07-29T06:32:30;5.55;;;4.93;;
13032;SDS011;6583;42.632;23.298;2023-07-29T06:34:57;8.02;;;4.80;;
13032;SDS011;6583;42.632;23.298;2023-07-29T06:37:24;5.18;;;4.70;;
13032;SDS011;6583;42.632;23.298;2023-07-29T06:39:50;7.38;;;4.63;;
13032;SDS011;6583;42.632;23.298;2023-07-29T06:42:17;6.70;;;4.70;;
13032;SDS011;6583;42.632;23.298;2023-07-29T06:44:44;4.97;;;4.50;;
13032;SDS011;6583;42.632;23.298;2023-07-29T06:47:11;4.63;;;4.30;;
13032;SDS011;6583;42.632;23.298;2023-07-29T06:49:39;5.35;;;4.55;;
13032;SDS011;6583;42.632;23.298;2023-07-29T06:52:06;6.10;;;4.60;;
13032;SDS011;6583;42.632;23.298;2023-07-29T06:54:33;7.75;;;5.00;;
13032;SDS011;6583;42.632;23.298;2023-07-29T06:56:59;6.78;;;4.53;;
13032;SDS011;6583;42.632;23.298;2023-07-29T06:59:26;6.45;;;4.15;;
13032;SDS011;6583;42.632;23.298;2023-07-29T07:01:52;9.55;;;4.53;;
13032;SDS011;6583;42.632;23.298;2023-07-29T07:04:19;5.97;;;4.28;;
13032;SDS011;6583;42.632;23.298;2023-07-29T07:06:47;6.28;;;3.92;;
13032;SDS011;6583;42.632;23.298;2023-07-29T07:09:14;4.50;;;4.10;;
13032;SDS011;6583;42.632;23.298;2023-07-29T07:11:40;5.47;;;4.07;;
13032;SDS011;6583;42.632;23.298;2023-07-29T07:14:07;5.07;;;4.43;;
13032;SDS011;6583;42.632;23.298;2023-07-29T07:16:34;6.22;;;4.53;;
13032;SDS011;6583;42.632;23.298;2023-07-29T07:19:02;7.80;;;4.47;;
13032;SDS011;6583;42.632;23.298;2023-07-29T07:21:28;5.80;;;4.45;;
13032;SDS011;6583;42.632;23.298;2023-07-29T07:23:56;7.13;;;4.18;;
13032;SDS011;6583;42.632;23.298;2023-07-29T07:26:23;4.47;;;4.10;;
13032;SDS011;6583;42.632;23.298;2023-07-29T07:28:50;5.70;;;4.00;;
13032;SDS011;6583;42.632;23.298;2023-07-29T07:31:17;4.82;;;4.32;;
13032;SDS011;6583;42.632;23.298;2023-07-29T07:33:44;4.47;;;4.00;;
13032;SDS011;6583;42.632;23.298;2023-07-29T07:36:10;5.85;;;4.07;;
13032;SDS011;6583;42.632;23.298;2023-07-29T07:38:37;5.85;;;4.60;;
13032;SDS011;6583;42.632;23.298;2023-07-29T07:41:05;5.00;;;4.10;;
13032;SDS011;6583;42.632;23.298;2023-07-29T07:43:32;4.90;;;4.40;;
13032;SDS011;6583;42.632;23.298;2023-07-29T07:45:59;5.18;;;4.18;;
13032;SDS011;6583;42.632;23.298;2023-07-29T07:48:26;5.07;;;4.20;;
13032;SDS011;6583;42.632;23.298;2023-07-29T07:50:53;6.30;;;3.92;;
13032;SDS011;6583;42.632;23.298;2023-07-29T07:53:20;4.78;;;4.35;;
13032;SDS011;6583;42.632;23.298;2023-07-29T07:55:46;6.10;;;4.07;;
13032;SDS011;6583;42.632;23.298;2023-07-29T07:58:14;4.60;;;4.20;;
13032;SDS011;6583;42.632;23.298;2023-07-29T08:00:41;4.72;;;4.07;;
13032;SDS011;6583;42.632;23.298;2023-07-29T08:03:08;4.45;;;4.15;;
13032;SDS011;6583;42.632;23.298;2023-07-29T08:05:34;4.78;;;4.30;;
13032;SDS011;6583;42.632;23.298;2023-07-29T08:08:01;4.53;;;4.13;;
13032;SDS011;6583;42.632;23.298;2023-07-29T08:10:29;3.55;;;3.25;;
13032;SDS011;6583;42.632;23.298;2023-07-29T08:12:56;5.22;;;3.50;;
13032;SDS011;6583;42.632;23.298;2023-07-29T08:15:24;4.28;;;3.67;;
13032;SDS011;6583;42.632;23.298;2023-07-29T08:17:51;4.85;;;4.00;;
13032;SDS011;6583;42.632;23.298;2023-07-29T08:20:17;5.72;;;3.90;;
13032;SDS011;6583;42.632;23.298;2023-07-29T08:22:44;3.90;;;3.60;;
13032;SDS011;6583;42.632;23.298;2023-07-29T08:25:10;5.18;;;3.83;;
13032;SDS011;6583;42.632;23.298;2023-07-29T08:27:37;4.63;;;3.60;;
13032;SDS011;6583;42.632;23.298;2023-07-29T08:30:04;4.18;;;3.67;;
13032;SDS011;6583;42.632;23.298;2023-07-29T08:32:33;5.47;;;3.90;;
13032;SDS011;6583;42.632;23.298;2023-07-29T08:35:00;6.03;;;3.78;;
13032;SDS011;6583;42.632;23.298;2023-07-29T08:37:27;3.50;;;3.20;;
13032;SDS011;6583;42.632;23.298;2023-07-29T08:39:54;3.90;;;3.47;;
13032;SDS011;6583;42.632;23.298;2023-07-29T08:42:21;4.45;;;4.10;;
13032;SDS011;6583;42.632;23.298;2023-07-29T08:44:50;4.00;;;3.60;;
13032;SDS011;6583;42.632;23.298;2023-07-29T08:47:20;4.25;;;3.85;;
13032;SDS011;6583;42.632;23.298;2023-07-29T08:49:48;3.92;;;3.63;;
13032;SDS011;6583;42.632;23.298;2023-07-29T08:52:18;4.05;;;3.75;;
13032;SDS011;6583;42.632;23.298;2023-07-29T08:54:44;2.92;;;2.72;;
13032;SDS011;6583;42.632;23.298;2023-07-29T08:57:12;3.03;;;2.80;;
13032;SDS011;6583;42.632;23.298;2023-07-29T08:59:39;4.25;;;3.45;;
13032;SDS011;6583;42.632;23.298;2023-07-29T09:02:07;3.53;;;3.22;;
13032;SDS011;6583;42.632;23.298;2023-07-29T09:04:33;3.70;;;3.40;;
13032;SDS011;6583;42.632;23.298;2023-07-29T09:07:01;5.00;;;2.90;;
13032;SDS011;6583;42.632;23.298;2023-07-29T09:09:28;5.72;;;3.28;;
13032;SDS011;6583;42.632;23.298;2023-07-29T09:11:55;3.53;;;3.15;;
13032;SDS011;6583;42.632;23.298;2023-07-29T09:14:23;2.90;;;2.70;;
13032;SDS011;6583;42.632;23.298;2023-07-29T09:16:50;3.25;;;2.58;;
13032;SDS011;6583;42.632;23.298;2023-07-29T09:19:16;2.85;;;2.58;;
13032;SDS011;6583;42.632;23.298;2023-07-29T09:21:45;3.25;;;2.97;;
13032;SDS011;6583;42.632;23.298;2023-07-29T09:24:14;3.35;;;3.10;;
13032;SDS011;6583;42.632;23.298;2023-07-29T09:26:47;5.03;;;3.20;;
13032;SDS011;6583;42.632;23.298;2023-07-29T09:29:15;3.10;;;2.83;;
13032;SDS011;6583;42.632;23.298;2023-07-29T09:31:42;2.50;;;2.40;;
13032;SDS011;6583;42.632;23.298;2023-07-29T09:34:09;3.20;;;2.90;;
13032;SDS011;6583;42.632;23.298;2023-07-29T09:36:35;2.67;;;2.47;;
13032;SDS011;6583;42.632;23.298;2023-07-29T09:39:02;2.58;;;2.38;;
13032;SDS011;6583;42.632;23.298;2023-07-29T09:41:31;2.65;;;2.40;;
13032;SDS011;6583;42.632;23.298;2023-07-29T09:43:58;3.95;;;2.30;;
13032;SDS011;6583;42.632;23.298;2023-07-29T09:46:34;3.20;;;2.45;;
13032;SDS011;6583;42.632;23.298;2023-07-29T09:49:03;4.10;;;2.38;;
13032;SDS011;6583;42.632;23.298;2023-07-29T09:51:30;2.65;;;2.30;;
13032;SDS011;6583;42.632;23.298;2023-07-29T09:53:57;2.35;;;2.15;;
13032;SDS011;6583;42.632;23.298;2023-07-29T09:56:28;10.55;;;2.50;;
13032;SDS011;6583;42.632;23.298;2023-07-29T09:58:56;2.90;;;2.13;;
13032;SDS011;6583;42.632;23.298;2023-07-29T10:01:23;6.57;;;1.90;;
13032;SDS011;6583;42.632;23.298;2023-07-29T10:03:50;3.03;;;1.80;;
13032;SDS011;6583;42.632;23.298;2023-07-29T10:06:18;2.38;;;1.95;;
13032;SDS011;6583;42.632;23.298;2023-07-29T10:08:45;2.20;;;1.80;;
13032;SDS011;6583;42.632;23.298;2023-07-29T10:11:13;2.70;;;1.65;;
13032;SDS011;6583;42.632;23.298;2023-07-29T10:13:40;2.55;;;1.50;;
13032;SDS011;6583;42.632;23.298;2023-07-29T10:16:08;2.25;;;1.85;;
13032;SDS011;6583;42.632;23.298;2023-07-29T10:18:36;1.80;;;1.70;;
13032;SDS011;6583;42.632;23.298;2023-07-29T10:21:03;5.63;;;1.80;;
13032;SDS011;6583;42.632;23.298;2023-07-29T10:23:32;2.22;;;1.80;;
13032;SDS011;6583;42.632;23.298;2023-07-29T10:26:03;1.70;;;1.60;;
13032;SDS011;6583;42.632;23.298;2023-07-29T10:28:31;1.95;;;1.38;;
13032;SDS011;6583;42.632;23.298;2023-07-29T10:30:59;2.00;;;1.60;;
13032;SDS011;6583;42.632;23.298;2023-07-29T10:33:27;1.50;;;1.40;;
13032;SDS011;6583;42.632;23.298;2023-07-29T10:35:54;2.72;;;1.65;;
13032;SDS011;6583;42.632;23.298;2023-07-29T10:38:21;2.40;;;1.77;;
13032;SDS011;6583;42.632;23.298;2023-07-29T10:40:50;1.85;;;1.75;;
13032;SDS011;6583;42.632;23.298;2023-07-29T10:43:23;1.55;;;1.45;;
13032;SDS011;6583;42.632;23.298;2023-07-29T10:45:52;3.28;;;1.50;;
13032;SDS011;6583;42.632;23.298;2023-07-29T10:51:24;2.38;;;1.75;;
13032;SDS011;6583;42.632;23.298;2023-07-29T10:53:54;2.28;;;1.50;;
13032;SDS011;6583;42.632;23.298;2023-07-29T10:56:26;1.55;;;1.45;;
13032;SDS011;6583;42.632;23.298;2023-07-29T10:58:54;1.70;;;1.60;;
13032;SDS011;6583;42.632;23.298;2023-07-29T11:01:29;2.83;;;1.80;;
13032;SDS011;6583;42.632;23.298;2023-07-29T11:09:52;3.90;;;1.55;;
13032;SDS011;6583;42.632;23.298;2023-07-29T11:12:36;2.58;;;2.00;;
13032;SDS011;6583;42.632;23.298;2023-07-29T11:15:06;1.98;;;1.88;;
13032;SDS011;6583;42.632;23.298;2023-07-29T11:17:39;2.40;;;2.03;;
13032;SDS011;6583;42.632;23.298;2023-07-29T11:20:08;2.42;;;2.20;;
13032;SDS011;6583;42.632;23.298;2023-07-29T11:22:36;1.75;;;1.65;;
13032;SDS011;6583;42.632;23.298;2023-07-29T11:25:03;1.77;;;1.67;;
13032;SDS011;6583;42.632;23.298;2023-07-29T11:27:31;2.33;;;1.90;;
13032;SDS011;6583;42.632;23.298;2023-07-29T11:29:58;1.95;;;1.85;;
13032;SDS011;6583;42.632;23.298;2023-07-29T11:32:26;2.13;;;1.90;;
13032;SDS011;6583;42.632;23.298;2023-07-29T11:34:53;2.00;;;1.80;;
13032;SDS011;6583;42.632;23.298;2023-07-29T11:37:21;2.13;;;2.00;;
13032;SDS011;6583;42.632;23.298;2023-07-29T11:39:48;2.13;;;2.00;;
13032;SDS011;6583;42.632;23.298;2023-07-29T11:42:16;1.75;;;1.65;;
13032;SDS011;6583;42.632;23.298;2023-07-29T11:44:43;1.70;;;1.60;;
13032;SDS011;6583;42.632;23.298;2023-07-29T11:47:10;2.35;;;1.95;;
13032;SDS011;6583;42.632;23.298;2023-07-29T11:49:38;2.53;;;1.83;;
13032;SDS011;6583;42.632;23.298;2023-07-29T11:52:06;1.58;;;1.48;;
13032;SDS011;6583;42.632;23.298;2023-07-29T11:54:35;2.28;;;1.90;;
13032;SDS011;6583;42.632;23.298;2023-07-29T11:57:03;1.75;;;1.65;;
13032;SDS011;6583;42.632;23.298;2023-07-29T11:59:32;3.47;;;1.75;;
13032;SDS011;6583;42.632;23.298;2023-07-29T12:02:00;14.77;;;3.65;;
13032;SDS011;6583;42.632;23.298;2023-07-29T12:04:27;6.75;;;2.08;;
13032;SDS011;6583;42.632;23.298;2023-07-29T12:06:54;1.92;;;1.83;;
13032;SDS011;6583;42.632;23.298;2023-07-29T12:09:21;2.38;;;1.60;;
13032;SDS011;6583;42.632;23.298;2023-07-29T12:11:49;3.88;;;1.75;;
13032;SDS011;6583;42.632;23.298;2023-07-29T12:14:17;2.70;;;1.67;;
13032;SDS011;6583;42.632;23.298;2023-07-29T12:16:44;1.92;;;1.80;;
13032;SDS011;6583;42.632;23.298;2023-07-29T12:19:11;2.65;;;1.70;;
13032;SDS011;6583;42.632;23.298;2023-07-29T12:21:39;3.97;;;1.80;;
13032;SDS011;6583;42.632;23.298;2023-07-29T12:24:07;2.17;;;1.80;;
13032;SDS011;6583;42.632;23.298;2023-07-29T12:26:35;2.47;;;1.70;;
13032;SDS011;6583;42.632;23.298;2023-07-29T12:29:11;4.82;;;2.03;;
13032;SDS011;6583;42.632;23.298;2023-07-29T12:31:38;2.83;;;2.08;;
13032;SDS011;6583;42.632;23.298;2023-07-29T12:34:05;2.17;;;1.98;;
13032;SDS011;6583;42.632;23.298;2023-07-29T12:36:41;2.83;;;1.90;;
13032;SDS011;6583;42.632;23.298;2023-07-29T12:39:15;2.08;;;1.75;;
13032;SDS011;6583;42.632;23.298;2023-07-29T12:41:43;2.30;;;1.90;;
13032;SDS011;6583;42.632;23.298;2023-07-29T12:44:10;1.90;;;1.73;;
13032;SDS011;6583;42.632;23.298;2023-07-29T12:46:38;3.13;;;1.85;;
13032;SDS011;6583;42.632;23.298;2023-07-29T12:49:04;1.80;;;1.70;;
13032;SDS011;6583;42.632;23.298;2023-07-29T12:51:31;2.97;;;1.80;;
13032;SDS011;6583;42.632;23.298;2023-07-29T12:53:58;1.77;;;1.63;;
13032;SDS011;6583;42.632;23.298;2023-07-29T12:56:25;1.92;;;1.83;;
13032;SDS011;6583;42.632;23.298;2023-07-29T12:58:52;1.98;;;1.85;;
13032;SDS011;6583;42.632;23.298;2023-07-29T13:01:20;1.95;;;1.73;;
13032;SDS011;6583;42.632;23.298;2023-07-29T13:03:47;2.33;;;2.13;;
13032;SDS011;6583;42.632;23.298;2023-07-29T13:06:14;2.03;;;1.92;;
13032;SDS011;6583;42.632;23.298;2023-07-29T13:08:41;2.58;;;1.70;;
13032;SDS011;6583;42.632;23.298;2023-07-29T13:11:08;1.80;;;1.70;;
13032;SDS011;6583;42.632;23.298;2023-07-29T13:13:35;3.65;;;1.90;;
13032;SDS011;6583;42.632;23.298;2023-07-29T13:16:01;2.78;;;1.90;;
13032;SDS011;6583;42.632;23.298;2023-07-29T13:18:30;2.47;;;1.88;;
13032;SDS011;6583;42.632;23.298;2023-07-29T13:20:56;1.92;;;1.80;;
13032;SDS011;6583;42.632;23.298;2023-07-29T13:23:23;2.17;;;1.67;;
13032;SDS011;6583;42.632;23.298;2023-07-29T13:25:49;2.30;;;1.90;;
13032;SDS011;6583;42.632;23.298;2023-07-29T13:28:16;2.08;;;1.73;;
13032;SDS011;6583;42.632;23.298;2023-07-29T13:30:44;1.60;;;1.50;;
13032;SDS011;6583;42.632;23.298;2023-07-29T13:33:11;1.80;;;1.70;;
13032;SDS011;6583;42.632;23.298;2023-07-29T13:35:39;2.05;;;1.95;;
13032;SDS011;6583;42.632;23.298;2023-07-29T13:38:05;1.90;;;1.73;;
13032;SDS011;6583;42.632;23.298;2023-07-29T13:40:32;2.50;;;2.30;;
13032;SDS011;6583;42.632;23.298;2023-07-29T13:42:58;2.40;;;1.88;;
13032;SDS011;6583;42.632;23.298;2023-07-29T13:45:25;2.45;;;2.00;;
13032;SDS011;6583;42.632;23.298;2023-07-29T13:47:52;2.38;;;2.17;;
13032;SDS011;6583;42.632;23.298;2023-07-29T13:50:18;1.98;;;1.88;;
13032;SDS011;6583;42.632;23.298;2023-07-29T13:52:47;2.22;;;1.80;;
13032;SDS011;6583;42.632;23.298;2023-07-29T13:55:13;2.05;;;1.95;;
13032;SDS011;6583;42.632;23.298;2023-07-29T13:57:40;3.05;;;1.83;;
13032;SDS011;6583;42.632;23.298;2023-07-29T14:00:07;2.30;;;2.10;;
13032;SDS011;6583;42.632;23.298;2023-07-29T14:02:34;2.83;;;1.80;;
13032;SDS011;6583;42.632;23.298;2023-07-29T14:05:00;2.42;;;2.10;;
13032;SDS011;6583;42.632;23.298;2023-07-29T14:07:27;2.85;;;2.10;;
13032;SDS011;6583;42.632;23.298;2023-07-29T14:09:55;2.47;;;2.30;;
13032;SDS011;6583;42.632;23.298;2023-07-29T14:12:22;2.35;;;2.17;;
13032;SDS011;6583;42.632;23.298;2023-07-29T14:14:48;2.90;;;2.50;;
13032;SDS011;6583;42.632;23.298;2023-07-29T14:17:15;2.42;;;2.30;;
13032;SDS011;6583;42.632;23.298;2023-07-29T14:19:42;4.28;;;2.40;;
13032;SDS011;6583;42.632;23.298;2023-07-29T14:22:08;3.03;;;2.70;;
13032;SDS011;6583;42.632;23.298;2023-07-29T14:24:35;3.45;;;2.65;;
13032;SDS011;6583;42.632;23.298;2023-07-29T14:27:03;3.53;;;2.40;;
13032;SDS011;6583;42.632;23.298;2023-07-29T14:29:31;2.83;;;2.55;;
13032;SDS011;6583;42.632;23.298;2023-07-29T14:31:57;2.90;;;2.50;;
13032;SDS011;6583;42.632;23.298;2023-07-29T14:34:24;4.47;;;2.42;;
13032;SDS011;6583;42.632;23.298;2023-07-29T14:36:51;3.45;;;2.70;;
13032;SDS011;6583;42.632;23.298;2023-07-29T14:39:18;3.15;;;2.80;;
13032;SDS011;6583;42.632;23.298;2023-07-29T14:41:44;2.75;;;2.55;;
13032;SDS011;6583;42.632;23.298;2023-07-29T14:44:12;3.70;;;2.40;;
13032;SDS011;6583;42.632;23.298;2023-07-29T14:46:39;2.35;;;2.25;;
13032;SDS011;6583;42.632;23.298;2023-07-29T14:49:05;2.58;;;2.38;;
13032;SDS011;6583;42.632;23.298;2023-07-29T14:51:32;2.25;;;2.15;;
13032;SDS011;6583;42.632;23.298;2023-07-29T14:53:59;2.40;;;2.20;;
13032;SDS011;6583;42.632;23.298;2023-07-29T14:56:25;2.92;;;2.72;;
13032;SDS011;6583;42.632;23.298;2023-07-29T14:58:52;3.13;;;2.40;;